Latest Weather Observations for Thredbo Top Station

IDN60801

Issued at 10:42 pm EDT Thursday 17 January 2019 (issued every 10 minutes, with the page automatically refreshed every 10 minutes)

About weather observations | Map of weather stations | Latest weather observations for NSW | Other Formats
Station Details ID: 071032 Name: THREDBO AWS Lat: -36.49 Lon: 148.29 Height: 1957.0 m
Data from the previous 72 hours. | See also: Recent months at Thredbo Top Station
Date/Time
EDT
Temp
°C
App
Temp
°C
Dew
Point
°C
Rel
Hum
%
Delta-T
°C
Wind Press
QNH
hPa
Press
MSL
hPa
Rain since
9am
mm
Dir  Spd
km/h
Gust
km/h
Spd
kts
Gust
kts
17/10:30pm 15.5 12.1 9.2 66 3.6 NNE 17 22 9 12 1025.0 1016.3 0.0
17/10:00pm 15.4 12.4 10.8 74 2.7 NE 17 22 9 12 1025.0 1016.3 0.0
17/09:30pm 15.2 12.1 11.6 79 2.1 NE 19 22 10 12 1024.7 1016.1 0.0
17/09:00pm 15.9 12.8 12.1 78 2.3 ENE 20 30 11 16 1024.5 1015.8 0.0
17/08:30pm 17.4 14.4 11.9 70 3.3 E 19 33 10 18 1024.2 1015.6 0.0
17/08:00pm 19.2 17.3 11.7 62 4.5 E 13 20 7 11 1024.1 1015.4 0.0
17/07:30pm 20.1 20.5 12.6 62 4.6 NE 2 4 1 2 1023.7 1015.1 0.0
17/07:00pm 20.5 19.9 12.2 59 5.1 SW 7 9 4 5 1023.5 1014.8 0.0
17/06:30pm 21.1 19.7 12.3 57 5.4 SSW 11 15 6 8 1023.1 1014.4 0.0
17/06:00pm 21.5 19.6 11.8 54 5.9 SW 13 20 7 11 1023.3 1014.6 0.0
17/05:30pm 21.7 20.2 12.0 54 6.0 N 11 24 6 13 1022.8 1014.1 0.0
17/05:00pm 22.6 20.5 11.0 48 7.0 WNW 13 20 7 11 1023.4 1014.7 0.0
17/04:30pm 23.3 19.9 10.7 45 7.6 NNW 19 30 10 16 1022.9 1014.2 0.0
17/04:00pm 23.1 20.7 10.2 44 7.7 NW 13 26 7 14 1023.1 1014.4 0.0
17/03:30pm 23.6 20.1 11.0 45 7.7 W 20 32 11 17 1023.4 1014.7 0.0
17/03:00pm 23.5 20.3 11.2 46 7.5 NW 19 28 10 15 1023.6 1014.9 0.0
17/02:30pm 23.9 19.8 11.6 46 7.6 NW 24 41 13 22 1023.6 1014.9 0.0
17/02:00pm 23.6 19.2 11.6 47 7.4 NW 26 39 14 21 1023.5 1014.8 0.0
17/01:30pm 22.8 17.2 10.3 45 7.5 NW 30 41 16 22 1023.7 1015.1 0.0
17/01:00pm 23.0 16.4 10.1 44 7.7 NNW 35 48 19 26 1023.3 1014.6 0.0
17/12:34pm 22.8 16.9 10.3 45 7.5 NNW 32 50 17 27 1023.4 1014.7 0.0
17/12:30pm 23.1 16.8 11.2 47 7.3 NNW 35 52 19 28 1023.6 1014.9 0.0
17/12:17pm 22.8 15.5 10.3 45 7.5 NNW 39 57 21 31 1023.3 1014.6 0.0
17/12:00pm 22.8 14.4 9.6 43 7.8 NNW 44 61 24 33 1022.9 1014.2 0.0
17/11:30am 22.2 14.6 9.0 43 7.7 NNW 39 57 21 31 1023.0 1014.3 0.0
17/11:23am 22.2 14.7 9.4 44 7.5 NNW 39 57 21 31 1023.0 1014.3 0.0
17/11:00am 22.5 14.2 9.3 43 7.8 NNW 43 59 23 32 1022.8 1014.1 0.0
17/10:30am 22.3 13.9 8.8 42 7.9 NNW 43 61 23 33 1023.0 1014.3 0.0
17/10:11am 21.7 13.0 8.6 43 7.6 NNW 44 65 24 35 1022.8 1014.1 0.0
17/10:00am 21.7 13.8 9.3 45 7.3 NNW 41 54 22 29 1023.1 1014.4 0.0
17/09:30am 22.0 14.1 9.2 44 7.5 NNW 41 56 22 30 1023.6 1014.9 0.0
17/09:11am 21.7 13.8 7.9 41 7.9 NNW 39 63 21 34 1023.4 1014.7 0.0
17/09:00am 21.9 15.0 8.8 43 7.6 NNW 35 48 19 26 1023.7 1015.1 0.0
17/08:30am 20.1 13.4 7.5 44 7.1 NNW 32 43 17 23 1023.7 1015.1 0.0
17/08:00am 20.0 12.7 7.1 43 7.2 NNW 35 44 19 24 1023.9 1015.2 0.0
17/07:30am 19.5 12.6 6.3 42 7.3 NNW 32 43 17 23 1023.7 1015.1 0.0
17/07:00am 19.6 11.4 4.9 38 7.9 NNW 37 50 20 27 1023.3 1014.6 0.0
17/06:30am 19.6 11.3 4.1 36 8.2 N 37 52 20 28 1022.9 1014.2 0.0
17/06:02am 18.8 11.8 4.2 38 7.7 NNW 30 48 16 26 1023.3 1014.6 0.0
17/06:00am 18.2 10.9 4.4 40 7.3 NNW 32 48 17 26 1023.5 1014.8 0.0
17/05:56am 18.4 11.5 4.6 40 7.3 NNW 30 48 16 26 1023.3 1014.6 0.0
17/05:30am 17.7 10.9 5.3 44 6.6 NNW 30 41 16 22 1023.5 1014.8 0.0
17/05:00am 17.2 10.4 4.9 44 6.5 NNW 30 33 16 18 1023.4 1014.7 0.0
17/04:30am 18.0 11.8 4.2 40 7.3 N 26 33 14 18 1023.5 1014.8 0.0
17/04:00am 17.0 10.9 5.0 45 6.3 N 26 35 14 19 1023.4 1014.7 0.0
17/03:30am 17.2 10.9 5.5 46 6.3 N 28 35 15 19 1023.5 1014.8 0.0
17/03:00am 16.5 11.3 7.2 54 5.1 N 24 32 13 17 1023.9 1015.2 0.0
17/02:30am 15.7 10.6 7.7 59 4.4 N 24 30 13 16 1024.5 1015.8 0.0
17/02:00am 15.4 10.0 7.9 61 4.2 N 26 33 14 18 1024.7 1016.1 0.0
17/01:30am 15.9 11.3 8.2 60 4.3 N 22 26 12 14 1025.2 1016.6 0.0
17/01:00am 15.7 10.6 7.7 59 4.4 N 24 28 13 15 1025.3 1016.7 0.0
17/12:30am 16.6 11.2 8.1 57 4.8 N 26 35 14 19 1025.1 1016.4 0.0
17/12:00am 16.2 11.2 7.9 58 4.6 N 24 33 13 18 1025.4 1016.8 0.0
 
Date/Time
EDT
Temp
°C
App
Temp
°C
Dew
Point
°C
Rel
Hum
%
Delta-T
°C
Wind Press
QNH
hPa
Press
MSL
hPa
Rain since
9am
mm
Dir  Spd
km/h
Gust
km/h
Spd
kts
Gust
kts
16/11:30pm 16.6 13.1 8.8 60 4.4 NNE 17 22 9 12 1025.9 1017.3 0.0
16/11:00pm 16.1 12.8 9.5 65 3.8 NE 17 20 9 11 1026.3 1017.7 0.0
16/10:30pm 15.9 13.8 9.6 66 3.6 NE 11 17 6 9 1026.5 1018.0 0.0
16/10:00pm 16.1 13.4 9.1 63 4.0 ENE 13 19 7 10 1026.5 1018.0 0.0
16/09:30pm 17.2 13.1 8.6 57 4.9 ENE 20 28 11 15 1026.4 1017.8 0.0
16/09:00pm 17.8 16.2 8.6 55 5.2 ENE 7 15 4 8 1026.3 1017.7 0.0
16/08:30pm 18.3 16.8 8.3 52 5.7 SE 6 11 3 6 1026.0 1017.4 0.0
16/08:00pm 19.4 16.2 8.4 49 6.3 E 15 24 8 13 1025.9 1017.3 0.0
16/07:30pm 20.7 17.9 8.7 46 6.9 ESE 13 22 7 12 1025.4 1016.8 0.0
16/07:00pm 21.5 19.1 8.7 44 7.4 SSE 11 24 6 13 1025.2 1016.6 0.0
16/06:30pm 22.1 18.5 8.2 41 8.0 SSW 17 24 9 13 1024.3 1015.7 0.0
16/06:00pm 24.3 19.6 6.1 31 10.2 NNW 20 37 11 20 1023.9 1015.2 0.0
16/05:30pm 25.7 21.2 6.3 29 11.0 NNW 19 35 10 19 1023.9 1015.2 0.0
16/05:00pm 25.6 21.4 5.8 28 11.1 NNW 17 24 9 13 1024.1 1015.4 0.0
16/04:30pm 26.1 22.3 7.7 31 10.7 NW 17 33 9 18 1024.3 1015.7 0.0
16/04:00pm 24.5 20.8 6.3 31 10.3 WNW 15 24 8 13 1024.6 1015.9 0.0
16/03:30pm 26.6 23.6 7.6 30 11.1 NW 13 24 7 13 1024.7 1016.1 0.0
16/03:00pm 26.0 22.9 5.6 27 11.5 NW 11 24 6 13 1024.8 1016.2 0.0
16/02:30pm 26.0 21.6 5.0 26 11.7 NW 17 30 9 16 1025.0 1016.3 0.0
16/02:00pm 26.4 22.5 3.6 23 12.4 W 13 24 7 13 1025.1 1016.4 0.0
16/01:30pm 25.9 23.0 4.9 26 11.7 NW 9 26 5 14 1025.1 1016.4 0.0
16/01:00pm 26.0 22.7 6.6 29 11.1 WNW 13 22 7 12 1025.6 1016.9 0.0
16/12:30pm 25.5 21.7 4.0 25 11.8 NW 13 20 7 11 1025.6 1016.9 0.0
16/12:00pm 25.5 21.4 4.6 26 11.5 NW 15 30 8 16 1025.8 1017.2 0.0
16/11:30am 24.7 21.3 6.0 30 10.5 WNW 13 22 7 12 1025.7 1017.1 0.0
16/11:00am 24.1 20.4 4.5 28 10.7 W 13 20 7 11 1025.8 1017.2 0.0
16/10:30am 24.4 20.3 2.5 24 11.6 W 13 22 7 12 1025.9 1017.3 0.0
16/10:00am 24.3 21.3 4.1 27 11.0 WNW 9 19 5 10 1025.9 1017.3 0.0
16/09:30am 24.0 21.1 4.4 28 10.7 W 9 17 5 9 1025.9 1017.3 0.0
16/09:00am 22.6 18.7 1.0 24 11.0 WSW 11 17 6 9 1026.0 1017.4 0.0
16/08:30am 22.1 18.2 3.3 29 10.0 W 13 17 7 9 1025.9 1017.3 0.0
16/08:00am 21.7 18.1 5.2 34 9.0 WNW 13 19 7 10 1025.6 1016.9 0.0
16/07:30am 20.5 16.4 4.1 34 8.7 WNW 15 17 8 9 1025.2 1016.6 0.0
16/07:00am 18.9 14.3 3.5 36 8.0 WNW 17 19 9 10 1024.8 1016.2 0.0
16/06:30am 17.0 12.0 3.7 41 6.9 WNW 19 22 10 12 1024.3 1015.7 0.0
16/06:00am 16.5 11.4 3.2 41 6.8 WNW 19 20 10 11 1024.2 1015.6 0.0
16/05:30am 16.4 11.3 3.1 41 6.8 WNW 19 20 10 11 1024.1 1015.4 0.0
16/05:00am 16.6 11.6 3.7 42 6.6 WNW 19 20 10 11 1024.0 1015.3 0.0
16/04:30am 15.8 11.5 5.1 49 5.6 NW 17 20 9 11 1024.0 1015.3 0.0
16/04:00am 14.1 9.9 5.5 56 4.5 NW 17 20 9 11 1024.0 1015.3 0.0
16/03:30am 14.4 9.8 6.7 60 4.2 NNW 20 26 11 14 1023.9 1015.2 0.0
16/03:00am 15.4 11.3 6.2 54 4.9 NW 17 19 9 10 1024.2 1015.6 0.0
16/02:30am 17.2 13.1 4.2 42 6.8 WNW 15 17 8 9 1024.3 1015.7 0.0
16/02:00am 15.4 11.8 4.8 49 5.5 NW 13 17 7 9 1024.5 1015.8 0.0
16/01:30am 14.6 11.6 7.9 64 3.7 NW 13 17 7 9 1024.8 1016.2 0.0
16/01:00am 15.2 11.6 10.4 73 2.8 NNW 20 20 11 11 1025.1 1016.4 0.0
16/12:30am 14.0 12.1 10.4 79 2.1 NNW 11 15 6 8 1025.0 1016.3 0.0
16/12:00am 13.5 11.0 9.7 78 2.2 NNW 13 15 7 8 1025.1 1016.4 0.0
 
Date/Time
EDT
Temp
°C
App
Temp
°C
Dew
Point
°C
Rel
Hum
%
Delta-T
°C
Wind Press
QNH
hPa
Press
MSL
hPa
Rain since
9am
mm
Dir  Spd
km/h
Gust
km/h
Spd
kts
Gust
kts
15/11:30pm 13.6 10.9 9.1 74 2.5 NNW 13 15 7 8 1025.2 1016.6 0.0
15/11:00pm 14.4 12.3 8.4 67 3.3 N 9 15 5 8 1025.3 1016.7 0.0
15/10:30pm 16.8 15.6 8.0 56 4.9 NNW 4 9 2 5 1025.6 1016.9 0.0
15/10:00pm 18.9 17.5 7.4 47 6.4 E 4 7 2 4 1025.8 1017.2 0.0
15/09:30pm 19.6 16.7 2.5 32 8.8 SW 7 9 4 5 1025.7 1017.1 0.0
15/09:00pm 20.0 17.4 4.1 35 8.4 WSW 7 11 4 6 1025.6 1016.9 0.0
15/08:30pm 20.1 16.1 2.9 32 8.9 WSW 13 17 7 9 1025.3 1016.7 0.0
15/08:00pm 20.9 17.6 4.5 34 8.8 WSW 11 15 6 8 1025.1 1016.4 0.0
15/07:30pm 21.4 18.3 5.7 36 8.6 WSW 11 17 6 9 1025.0 1016.3 0.0
15/07:00pm 22.9 19.3 6.6 35 9.2 W 15 24 8 13 1024.8 1016.2 0.0
15/06:30pm 22.7 17.3 6.5 35 9.1 W 24 33 13 18 1024.5 1015.8 0.0
15/06:00pm 24.2 18.7 6.0 31 10.2 W 24 35 13 19 1024.2 1015.6 0.0
15/05:30pm 23.4 18.3 5.8 32 9.8 W 22 33 12 18 1024.2 1015.6 0.0
15/05:00pm 24.1 19.1 6.4 32 10.0 WNW 22 35 12 19 1024.2 1015.6 0.0
15/04:30pm 24.8 19.8 7.9 34 9.8 WNW 24 37 13 20 1024.2 1015.6 0.0
15/04:00pm 23.3 18.6 7.8 37 8.9 W 22 33 12 18 1024.5 1015.8 0.0
15/03:30pm 22.3 18.5 9.8 45 7.4 NW 20 32 11 17 1024.5 1015.8 0.0
15/03:00pm 23.5 18.8 10.6 44 7.8 NW 26 41 14 22 1024.1 1015.4 0.0
15/02:30pm 23.9 17.8 10.6 43 8.1 NW 33 48 18 26 1024.3 1015.7 0.0
15/02:13pm 22.4 16.4 10.2 46 7.3 NW 32 52 17 28 1024.0 1015.3 0.0
15/02:00pm 22.6 16.3 9.0 42 8.0 NW 32 43 17 23 1024.3 1015.7 0.0
15/01:30pm 22.7 16.6 8.4 40 8.3 NW 30 44 16 24 1024.3 1015.7 0.0
15/01:00pm 21.9 15.2 9.8 46 7.2 NW 35 50 19 27 1024.6 1015.9 0.0
15/12:40pm 23.4 17.8 10.1 43 8.0 WNW 30 50 16 27 1024.6 1015.9 0.0
15/12:30pm 23.5 19.2 11.9 48 7.2 WNW 26 43 14 23 1025.0 1016.3 0.0
15/12:00pm 23.5 18.5 10.9 45 7.6 NW 28 41 15 22 1025.1 1016.4 0.0
15/11:30am 23.2 19.2 9.2 41 8.3 W 20 33 11 18 1025.1 1016.4 0.0
15/11:00am 23.0 18.9 10.1 44 7.7 W 22 35 12 19 1025.1 1016.4 0.0
15/10:30am 22.2 16.6 10.0 46 7.3 WNW 30 44 16 24 1025.0 1016.3 0.0
15/10:00am 22.2 16.3 10.4 47 7.1 NW 32 46 17 25 1024.8 1016.2 0.0
15/09:30am 21.9 15.3 11.3 51 6.4 NW 37 50 20 27 1025.0 1016.3 0.0
15/09:00am 21.1 12.0 10.0 49 6.6 NW 48 59 26 32 1024.3 1015.7 0.0
15/08:30am 20.6 13.3 10.1 51 6.2 NW 39 52 21 28 1024.3 1015.7 0.0
15/08:00am 20.2 11.9 9.5 50 6.2 NW 43 54 23 29 1024.1 1015.4 0.0
15/07:30am 19.6 12.0 9.2 51 6.0 NW 39 52 21 28 1024.1 1015.4 0.0
15/07:00am 19.5 11.8 8.8 50 6.2 NW 39 54 21 29 1023.9 1015.2 0.0
15/06:30am 18.6 11.2 8.3 51 5.9 NW 37 46 20 25 1023.5 1014.8 0.0
15/06:00am 18.4 11.9 8.1 51 5.8 NW 32 41 17 22 1023.5 1014.8 0.0
15/05:30am 19.0 13.2 7.8 48 6.3 NW 28 37 15 20 1023.6 1014.9 0.0
15/05:00am 18.5 13.5 7.9 50 6.0 NW 24 33 13 18 1023.6 1014.9 0.0
15/04:30am 18.3 13.4 8.6 53 5.5 NW 24 33 13 18 1023.6 1014.9 0.0
15/04:00am 17.8 13.8 9.2 57 4.9 NW 20 26 11 14 1023.7 1015.1 0.0
15/03:30am 15.9 11.4 10.0 68 3.4 NNW 24 28 13 15 1024.0 1015.3 0.0
15/03:00am 15.6 11.0 9.7 68 3.4 NNW 24 28 13 15 1024.6 1015.9 0.0
15/02:30am 14.8 10.6 9.8 72 2.9 NNW 22 24 12 13 1025.0 1016.3 0.0
15/02:00am 13.8 10.2 10.4 80 2.0 NNW 20 22 11 12 1025.3 1016.7 0.0
15/01:30am 14.4 10.8 10.4 77 2.3 N 20 22 11 12 1025.6 1016.9 0.0
15/01:00am 15.9 12.6 10.9 72 2.9 NNW 19 20 10 11 1025.7 1017.1 0.0
15/12:30am 14.1 10.6 10.1 77 2.3 N 19 20 10 11 1025.9 1017.3 0.0
15/12:00am 15.9 13.2 10.2 69 3.3 N 15 19 8 10 1026.0 1017.4 0.0
 
Date/Time
EDT
Temp
°C
App
Temp
°C
Dew
Point
°C
Rel
Hum
%
Delta-T
°C
Wind Press
QNH
hPa
Press
MSL
hPa
Rain since
9am
mm
Dir  Spd
km/h
Gust
km/h
Spd
kts
Gust
kts
14/11:30pm 15.5 13.9 10.1 70 3.1 NW 9 13 5 7 1026.3 1017.7 0.0
14/11:00pm 18.0 16.8 10.4 61 4.5 SW 7 7 4 4 1026.4 1017.8 0.0

Other Formats:

Comma delimited format used in spreadsheet applications
http://www.bom.gov.au/fwo/IDN60801/IDN60801.95909.axf

JavaScript Object Notation format (JSON) in row-major order
http://www.bom.gov.au/fwo/IDN60801/IDN60801.95909.json